createdAt,value
2019-02-09T00:01:37.418Z,84.22
2019-02-09T00:04:07.098Z,84.38
2019-02-09T00:06:34.443Z,84.71
2019-02-09T00:09:06.873Z,84.34
2019-02-09T00:11:36.832Z,84.99
2019-02-09T00:14:06.724Z,85.29
2019-02-09T00:16:35.823Z,85.21
2019-02-09T00:19:05.116Z,85.26
2019-02-09T00:21:32.267Z,85.43
2019-02-09T00:23:59.433Z,85.10
2019-02-09T00:26:28.623Z,85.54
2019-02-09T00:28:55.742Z,85.35
2019-02-09T00:31:25.795Z,85.38
2019-02-09T00:33:56.114Z,86.02
2019-02-09T00:36:23.242Z,86.07
2019-02-09T00:38:53.006Z,86.55
2019-02-09T00:41:21.424Z,86.47
2019-02-09T00:43:48.530Z,87.00
2019-02-09T00:46:15.617Z,87.03
2019-02-09T00:48:47.379Z,87.16
2019-02-09T00:51:16.291Z,86.64
2019-02-09T00:53:46.030Z,86.55
2019-02-09T00:56:17.644Z,87.11
2019-02-09T00:58:51.616Z,86.92
2019-02-09T01:01:21.547Z,86.62
2019-02-09T01:03:48.649Z,86.85
2019-02-09T01:06:15.848Z,86.76
2019-02-09T01:08:48.824Z,86.95
2019-02-09T01:11:27.710Z,86.96
2019-02-09T01:13:57.877Z,87.53
2019-02-09T01:16:26.180Z,87.40
2019-02-09T01:18:56.174Z,87.07
2019-02-09T01:21:28.131Z,87.31
2019-02-09T01:23:58.020Z,87.62
2019-02-09T01:26:25.180Z,87.33
2019-02-09T01:28:52.332Z,87.36
2019-02-09T01:31:32.378Z,87.30
2019-02-09T01:34:04.649Z,87.10
2019-02-09T01:36:33.951Z,87.37
2019-02-09T01:39:01.073Z,87.86
2019-02-09T01:41:28.500Z,87.85
2019-02-09T01:43:55.700Z,87.59
2019-02-09T01:46:22.876Z,87.31
2019-02-09T01:48:53.375Z,87.49
2019-02-09T01:51:22.596Z,87.49
2019-02-09T01:53:51.518Z,87.36
2019-02-09T01:56:18.644Z,87.26
2019-02-09T01:58:48.895Z,87.43
2019-02-09T02:01:16.095Z,87.33
2019-02-09T02:03:46.296Z,87.59
2019-02-09T02:06:13.555Z,87.38
2019-02-09T02:08:49.918Z,87.23
2019-02-09T02:11:17.080Z,87.32
2019-02-09T02:13:44.258Z,87.35
2019-02-09T02:16:14.343Z,87.65
2019-02-09T02:18:43.942Z,87.47
2019-02-09T02:21:13.487Z,87.46
2019-02-09T02:23:45.718Z,87.97
2019-02-09T02:26:20.320Z,88.04
2019-02-09T02:28:47.602Z,88.04
2019-02-09T02:31:17.219Z,88.09
2019-02-09T02:33:48.900Z,87.88
2019-02-09T02:36:18.787Z,87.90
2019-02-09T02:38:47.047Z,88.21
2019-02-09T02:41:16.281Z,88.40
2019-02-09T02:43:43.383Z,88.26
2019-02-09T02:46:17.905Z,88.12
2019-02-09T02:48:52.493Z,87.91
2019-02-09T02:51:22.351Z,87.92
2019-02-09T02:53:50.533Z,87.86
2019-02-09T02:56:17.761Z,87.86
2019-02-09T02:58:44.953Z,87.96
2019-02-09T03:01:13.907Z,87.94
2019-02-09T03:03:42.238Z,88.23
2019-02-09T03:06:09.393Z,88.19
2019-02-09T03:08:38.280Z,88.33
2019-02-09T03:11:07.378Z,88.33
2019-02-09T03:13:34.482Z,88.20
2019-02-09T03:16:01.587Z,88.28
2019-02-09T03:18:28.684Z,87.95
2019-02-09T03:20:55.807Z,88.06
2019-02-09T03:23:22.875Z,88.07
2019-02-09T03:25:50.094Z,88.18
2019-02-09T03:28:17.180Z,88.01
2019-02-09T03:30:48.376Z,87.80
2019-02-09T03:33:13.272Z,87.82
2019-02-09T03:35:40.353Z,87.91
2019-02-09T03:38:07.437Z,88.15
2019-02-09T03:40:34.545Z,88.23
2019-02-09T03:43:01.640Z,88.15
2019-02-09T03:45:29.803Z,87.84
2019-02-09T03:47:56.922Z,87.81
2019-02-09T03:50:26.580Z,87.74
2019-02-09T03:52:53.684Z,88.16
2019-02-09T03:55:20.796Z,88.07
2019-02-09T03:57:47.888Z,88.34
2019-02-09T04:00:20.357Z,88.14
2019-02-09T04:02:48.280Z,88.24
2019-02-09T04:05:17.295Z,88.06
2019-02-09T04:07:44.611Z,88.20
2019-02-09T04:10:13.317Z,88.30
2019-02-09T04:12:41.553Z,88.33
2019-02-09T04:15:09.738Z,88.00
2019-02-09T04:17:36.947Z,87.87
2019-02-09T04:20:08.019Z,88.22
2019-02-09T04:22:35.125Z,88.29
2019-02-09T04:25:07.681Z,88.13
2019-02-09T04:27:34.777Z,87.93
2019-02-09T04:30:10.563Z,87.59
2019-02-09T04:32:37.791Z,87.56
2019-02-09T04:35:06.967Z,87.71
2019-02-09T04:40:10.044Z,88.05
2019-02-09T04:42:37.147Z,88.26
2019-02-09T04:45:08.958Z,88.15
2019-02-09T04:47:39.182Z,88.17
2019-02-09T04:50:07.111Z,87.81
2019-02-09T04:52:36.112Z,88.02
2019-02-09T04:55:07.861Z,88.26
2019-02-09T04:57:34.965Z,88.44
2019-02-09T05:00:05.654Z,88.34
2019-02-09T05:02:31.604Z,88.22
2019-02-09T05:04:58.698Z,88.31
2019-02-09T05:07:25.788Z,88.38
2019-02-09T05:09:52.878Z,88.34
2019-02-09T05:12:19.986Z,88.62
2019-02-09T05:14:47.073Z,88.62
2019-02-09T05:17:14.182Z,88.71
2019-02-09T05:19:41.285Z,88.70
2019-02-09T05:22:08.617Z,88.59
2019-02-09T05:24:35.732Z,88.47
2019-02-09T05:27:02.853Z,88.22
2019-02-09T05:29:29.949Z,88.09
2019-02-09T05:31:57.053Z,88.24
2019-02-09T05:34:24.181Z,88.13
2019-02-09T05:36:51.281Z,88.15
2019-02-09T05:39:18.384Z,88.03
2019-02-09T05:41:45.479Z,87.83
2019-02-09T05:44:12.568Z,87.96
2019-02-09T05:46:39.748Z,87.92
2019-02-09T05:49:06.830Z,88.07
2019-02-09T05:51:34.662Z,88.19
2019-02-09T05:54:01.794Z,88.45
2019-02-09T05:56:28.943Z,88.34
2019-02-09T05:58:56.163Z,88.30
2019-02-09T06:01:31.602Z,88.42
2019-02-09T06:03:52.239Z,88.38
2019-02-09T06:06:19.344Z,88.14
2019-02-09T06:08:46.472Z,88.10
2019-02-09T06:11:13.565Z,88.23
2019-02-09T06:13:40.662Z,88.34
2019-02-09T06:16:08.090Z,88.39
2019-02-09T06:18:36.130Z,88.19
2019-02-09T06:21:03.326Z,88.12
2019-02-09T06:23:30.401Z,88.43
2019-02-09T06:25:57.513Z,88.51
2019-02-09T06:28:24.608Z,88.44
2019-02-09T06:30:51.707Z,88.47
2019-02-09T06:33:18.813Z,88.46
2019-02-09T06:35:46.198Z,88.47
2019-02-09T06:38:13.287Z,88.46
2019-02-09T06:40:40.381Z,88.38
2019-02-09T06:43:07.491Z,88.31
2019-02-09T06:45:34.582Z,88.41
2019-02-09T06:48:20.280Z,88.58
2019-02-09T06:50:47.446Z,88.93
2019-02-09T06:53:14.549Z,88.86
2019-02-09T06:55:41.866Z,88.96
2019-02-09T06:58:09.331Z,89.00
2019-02-09T07:00:38.889Z,88.71
2019-02-09T07:03:06.359Z,88.51
2019-02-09T07:05:33.532Z,88.66
2019-02-09T07:08:00.639Z,88.61
2019-02-09T07:10:27.870Z,88.50
2019-02-09T07:12:54.978Z,88.56
2019-02-09T07:15:26.407Z,88.62
2019-02-09T07:17:53.759Z,88.72
2019-02-09T07:20:21.467Z,88.58
2019-02-09T07:22:48.578Z,88.61
2019-02-09T07:25:16.285Z,88.51
2019-02-09T07:27:43.489Z,88.50
2019-02-09T07:30:13.737Z,88.48
2019-02-09T07:32:40.900Z,88.54
2019-02-09T07:35:09.887Z,88.68
2019-02-09T07:37:37.032Z,88.61
2019-02-09T07:40:05.341Z,88.53
2019-02-09T07:42:32.453Z,88.37
2019-02-09T07:45:00.003Z,88.36
2019-02-09T07:47:27.269Z,88.76
2019-02-09T07:49:54.355Z,88.67
2019-02-09T07:52:21.499Z,88.77
2019-02-09T07:54:48.612Z,88.69
2019-02-09T07:57:15.808Z,88.50
2019-02-09T07:59:42.903Z,88.55
2019-02-09T08:02:10.026Z,88.55
2019-02-09T08:04:37.181Z,88.51
2019-02-09T08:07:04.270Z,88.38
2019-02-09T08:09:31.572Z,88.38
2019-02-09T08:11:58.739Z,88.26
2019-02-09T08:14:25.837Z,88.24
2019-02-09T08:16:52.928Z,88.23
2019-02-09T08:19:20.031Z,88.28
2019-02-09T08:21:47.229Z,88.30
2019-02-09T08:24:14.380Z,88.27
2019-02-09T08:26:41.482Z,88.06
2019-02-09T08:29:08.654Z,88.01
2019-02-09T08:31:35.788Z,88.08
2019-02-09T08:34:03.251Z,87.93
2019-02-09T08:36:30.352Z,87.97
2019-02-09T08:38:57.492Z,88.22
2019-02-09T08:41:24.584Z,88.15
2019-02-09T08:43:51.708Z,88.14
2019-02-09T08:46:18.794Z,88.06
2019-02-09T08:48:45.893Z,88.09
2019-02-09T08:51:13.837Z,88.25
2019-02-09T08:53:41.153Z,88.28
2019-02-09T08:56:08.274Z,88.22
2019-02-09T08:58:35.376Z,88.11
2019-02-09T09:01:03.772Z,87.98
2019-02-09T09:03:30.909Z,87.95
2019-02-09T09:05:58.041Z,87.97
2019-02-09T09:08:25.145Z,87.93
2019-02-09T09:10:52.465Z,88.08
2019-02-09T09:13:19.651Z,88.15
2019-02-09T09:15:49.420Z,88.15
2019-02-09T09:18:16.858Z,88.08
2019-02-09T09:20:55.555Z,87.88
2019-02-09T09:23:22.701Z,87.75
2019-02-09T09:25:49.889Z,87.85
2019-02-09T09:28:16.978Z,87.95
2019-02-09T09:30:44.081Z,88.07
2019-02-09T09:33:11.172Z,87.88
2019-02-09T09:35:40.146Z,87.77
2019-02-09T09:38:07.362Z,87.83
2019-02-09T09:40:36.931Z,88.04
2019-02-09T09:43:04.776Z,87.98
2019-02-09T09:45:33.662Z,87.94
2019-02-09T09:48:00.752Z,87.86
2019-02-09T09:50:28.562Z,87.77
2019-02-09T09:52:55.665Z,87.74
2019-02-09T09:55:23.040Z,87.78
2019-02-09T09:57:50.167Z,87.70
2019-02-09T10:00:17.692Z,87.66
2019-02-09T10:02:44.790Z,87.77
2019-02-09T10:05:12.087Z,87.81
2019-02-09T10:07:39.182Z,87.77
2019-02-09T10:10:08.272Z,87.66
2019-02-09T10:12:35.383Z,87.52
2019-02-09T10:15:02.795Z,87.61
2019-02-09T10:17:29.894Z,87.61
2019-02-09T10:19:56.998Z,87.58
2019-02-09T10:22:24.079Z,87.57
2019-02-09T10:24:51.194Z,87.52
2019-02-09T10:27:18.457Z,87.53
2019-02-09T10:29:45.570Z,87.55
2019-02-09T10:32:12.731Z,87.57
2019-02-09T10:34:40.049Z,87.71
2019-02-09T10:37:07.263Z,87.65
2019-02-09T10:39:34.369Z,87.73
2019-02-09T10:42:01.890Z,87.93
2019-02-09T10:44:29.351Z,87.92
2019-02-09T10:46:56.463Z,88.03
2019-02-09T10:49:23.598Z,88.11
2019-02-09T10:51:50.701Z,87.99
2019-02-09T10:54:17.864Z,88.00
2019-02-09T10:56:45.071Z,88.04
2019-02-09T10:59:12.182Z,88.06
2019-02-09T11:01:39.435Z,87.95
2019-02-09T11:04:07.227Z,87.97
2019-02-09T11:06:34.459Z,87.86
2019-02-09T11:09:01.667Z,87.84
2019-02-09T11:11:28.812Z,87.86
2019-02-09T11:13:55.961Z,87.93
2019-02-09T11:16:23.063Z,87.95
2019-02-09T11:18:50.154Z,87.91
2019-02-09T11:21:17.317Z,87.91
2019-02-09T11:23:44.511Z,87.89
2019-02-09T11:26:11.745Z,87.98
2019-02-09T11:28:38.811Z,88.04
2019-02-09T11:31:06.016Z,87.89
2019-02-09T11:33:33.115Z,87.85
2019-02-09T11:36:00.378Z,87.69
2019-02-09T11:38:27.504Z,87.67
2019-02-09T11:40:54.627Z,87.72
2019-02-09T11:43:21.827Z,87.81
2019-02-09T11:45:48.917Z,87.75
2019-02-09T11:48:26.126Z,87.83
2019-02-09T11:50:53.428Z,87.75
2019-02-09T11:53:29.859Z,87.83
2019-02-09T11:55:57.000Z,87.65
2019-02-09T11:58:24.125Z,87.72
2019-02-09T12:00:51.997Z,87.82
2019-02-09T12:03:19.348Z,87.88
2019-02-09T12:05:46.460Z,87.94
2019-02-09T12:08:13.558Z,87.88
2019-02-09T12:10:40.694Z,87.80
2019-02-09T12:13:07.969Z,87.89
2019-02-09T12:15:35.105Z,87.87
2019-02-09T12:18:02.259Z,87.92
2019-02-09T12:20:29.400Z,87.90
2019-02-09T12:22:56.495Z,88.04
2019-02-09T12:25:28.731Z,88.04
2019-02-09T12:27:55.956Z,88.02
2019-02-09T12:30:24.828Z,87.94
2019-02-09T12:32:51.948Z,87.87
2019-02-09T12:35:19.681Z,87.84
2019-02-09T12:37:46.861Z,87.90
2019-02-09T12:40:19.083Z,87.90
2019-02-09T12:42:46.182Z,87.85
2019-02-09T12:45:14.327Z,87.80
2019-02-09T12:47:41.439Z,87.78
2019-02-09T12:50:10.137Z,87.80
2019-02-09T12:52:37.268Z,87.72
2019-02-09T12:55:04.775Z,87.77
2019-02-09T12:57:31.880Z,87.83
2019-02-09T12:59:59.239Z,87.85
2019-02-09T13:02:26.358Z,87.83
2019-02-09T13:04:53.536Z,87.79
2019-02-09T13:07:20.623Z,87.75
2019-02-09T13:09:47.721Z,87.79
2019-02-09T13:12:14.805Z,87.76
2019-02-09T13:14:42.006Z,87.68
2019-02-09T13:17:09.105Z,87.71
2019-02-09T13:19:36.328Z,87.70
2019-02-09T13:22:03.691Z,87.67
2019-02-09T13:24:30.837Z,87.68
2019-02-09T13:26:58.073Z,87.62
2019-02-09T13:29:25.198Z,87.65
2019-02-09T13:31:52.310Z,87.70
2019-02-09T13:34:19.793Z,87.73
2019-02-09T13:36:46.987Z,87.84
2019-02-09T13:39:14.137Z,87.87
2019-02-09T13:41:41.237Z,87.92
2019-02-09T13:44:08.391Z,88.01
2019-02-09T13:46:35.489Z,87.93
2019-02-09T13:49:02.730Z,87.81
2019-02-09T13:51:29.852Z,87.78
2019-02-09T13:53:56.957Z,87.80
2019-02-09T13:56:24.049Z,87.77
2019-02-09T13:58:51.316Z,87.71
2019-02-09T14:01:18.423Z,87.79
2019-02-09T14:03:46.897Z,87.85
2019-02-09T14:06:14.255Z,87.80
2019-02-09T14:08:41.343Z,87.70
2019-02-09T14:11:08.457Z,87.70
2019-02-09T14:13:35.580Z,87.70
2019-02-09T14:16:08.018Z,87.80
2019-02-09T14:18:31.947Z,87.80
2019-02-09T14:20:59.040Z,87.72
2019-02-09T14:23:26.334Z,87.63
2019-02-09T14:25:53.430Z,87.59
2019-02-09T14:28:22.536Z,87.61
2019-02-09T14:30:49.635Z,87.65
2019-02-09T14:33:16.823Z,87.63
2019-02-09T14:35:44.822Z,87.64
2019-02-09T14:38:11.992Z,87.76
2019-02-09T14:40:39.215Z,87.71
2019-02-09T14:43:07.077Z,87.65
2019-02-09T14:45:38.775Z,87.61
2019-02-09T14:48:05.864Z,87.53
2019-02-09T14:50:32.980Z,87.53
2019-02-09T14:53:00.177Z,87.49
2019-02-09T14:55:49.450Z,87.48
2019-02-09T14:58:16.555Z,87.50
2019-02-09T15:00:46.231Z,87.55
2019-02-09T15:03:13.744Z,87.55
2019-02-09T15:05:41.546Z,87.52
2019-02-09T15:08:08.744Z,87.40
2019-02-09T15:10:35.833Z,87.50
2019-02-09T15:13:03.491Z,87.46
2019-02-09T15:15:54.267Z,87.49
2019-02-09T15:18:21.364Z,87.54
2019-02-09T15:20:51.903Z,87.56
2019-02-09T15:23:19.002Z,87.54
2019-02-09T15:25:46.091Z,87.62
2019-02-09T15:28:13.193Z,87.57
2019-02-09T15:30:40.276Z,87.56
2019-02-09T15:33:07.400Z,87.59
2019-02-09T15:35:34.508Z,87.64
2019-02-09T15:38:01.610Z,87.67
2019-02-09T15:40:28.726Z,87.66
2019-02-09T15:42:56.146Z,87.60
2019-02-09T15:45:23.563Z,87.76
2019-02-09T15:47:50.669Z,87.64
2019-02-09T15:50:18.169Z,87.72
2019-02-09T15:52:45.491Z,87.78
2019-02-09T15:55:14.580Z,87.72
2019-02-09T15:57:41.699Z,87.62
2019-02-09T16:00:13.185Z,87.50
2019-02-09T16:02:40.286Z,87.46
2019-02-09T16:05:08.468Z,87.41
2019-02-09T16:07:38.292Z,87.42
2019-02-09T16:10:06.090Z,87.40
2019-02-09T16:12:33.187Z,87.44
2019-02-09T16:15:00.328Z,87.51
2019-02-09T16:17:27.417Z,87.46
2019-02-09T16:19:54.513Z,87.55
2019-02-09T16:22:21.636Z,87.59
2019-02-09T16:24:48.717Z,87.54
2019-02-09T16:27:15.817Z,87.54
2019-02-09T16:29:42.904Z,87.61
2019-02-09T16:32:10.001Z,87.75
2019-02-09T16:34:37.095Z,87.89
2019-02-09T16:37:04.244Z,87.94
2019-02-09T16:39:31.339Z,87.90
2019-02-09T16:41:58.440Z,87.81
2019-02-09T16:44:25.539Z,87.80
2019-02-09T16:46:52.621Z,87.92
2019-02-09T16:49:19.755Z,87.93
2019-02-09T16:51:46.835Z,87.86
2019-02-09T16:54:13.924Z,87.83
2019-02-09T16:56:41.019Z,87.91
2019-02-09T16:59:08.111Z,87.92
2019-02-09T17:01:35.200Z,88.06
2019-02-09T17:04:02.298Z,88.06
2019-02-09T17:06:29.405Z,87.99
2019-02-09T17:08:56.481Z,87.91
2019-02-09T17:11:23.572Z,87.85
2019-02-09T17:13:50.662Z,87.76
2019-02-09T17:16:17.757Z,87.71
2019-02-09T17:18:44.851Z,87.67
2019-02-09T17:21:11.971Z,87.64
2019-02-09T17:23:39.058Z,87.62
2019-02-09T17:26:06.152Z,87.52
2019-02-09T17:28:33.280Z,87.45
2019-02-09T17:31:00.371Z,87.53
2019-02-09T17:33:27.495Z,87.52
2019-02-09T17:35:54.593Z,87.59
2019-02-09T17:38:21.684Z,87.60
2019-02-09T17:40:48.781Z,87.60
2019-02-09T17:43:15.889Z,87.58
2019-02-09T17:45:48.609Z,87.60
2019-02-09T17:48:15.745Z,87.62
2019-02-09T17:50:42.868Z,87.55
2019-02-09T17:53:09.982Z,87.56
2019-02-09T17:55:37.085Z,87.68
2019-02-09T17:58:04.513Z,87.68
2019-02-09T18:00:51.288Z,87.70
2019-02-09T18:03:18.391Z,87.79
2019-02-09T18:05:45.490Z,87.77
2019-02-09T18:08:12.706Z,87.75
2019-02-09T18:10:39.798Z,87.72
2019-02-09T18:13:06.894Z,88.05
2019-02-09T18:15:35.399Z,88.03
2019-02-09T18:18:02.767Z,88.08
2019-02-09T18:20:30.097Z,88.06
2019-02-09T18:22:57.184Z,88.07
2019-02-09T18:25:24.335Z,88.09
2019-02-09T18:27:51.568Z,88.21
2019-02-09T18:30:22.832Z,88.19
2019-02-09T18:32:50.035Z,88.28
2019-02-09T18:35:17.182Z,88.39
2019-02-09T18:37:44.280Z,88.47
2019-02-09T18:40:14.260Z,88.43
2019-02-09T18:42:41.410Z,88.33
2019-02-09T18:45:12.824Z,88.31
2019-02-09T18:47:40.035Z,88.27
2019-02-09T18:50:09.585Z,88.16
2019-02-09T18:52:36.700Z,88.06
2019-02-09T18:55:04.422Z,88.05
2019-02-09T18:57:31.593Z,87.98
2019-02-09T18:59:58.712Z,88.00
2019-02-09T19:02:25.867Z,88.07
2019-02-09T19:05:03.952Z,88.07
2019-02-09T19:07:25.269Z,88.13
2019-02-09T19:09:52.363Z,88.05
2019-02-09T19:12:21.433Z,87.92
2019-02-09T19:14:48.877Z,87.84
2019-02-09T19:17:18.591Z,87.88
2019-02-09T19:19:45.696Z,87.86
2019-02-09T19:22:20.143Z,87.92
2019-02-09T19:24:41.911Z,87.90
2019-02-09T19:27:09.115Z,87.85
2019-02-09T19:29:36.333Z,87.91
2019-02-09T19:32:03.702Z,87.87
2019-02-09T19:34:32.581Z,87.91
2019-02-09T19:36:59.967Z,87.94
2019-02-09T19:39:27.102Z,87.94
2019-02-09T19:41:54.466Z,87.92
2019-02-09T19:44:22.860Z,87.80
2019-02-09T19:46:52.071Z,87.70
2019-02-09T19:49:19.198Z,87.75
2019-02-09T19:51:46.307Z,87.91
2019-02-09T19:54:16.081Z,87.87
2019-02-09T19:56:45.464Z,87.77
2019-02-09T19:59:12.587Z,87.77
2019-02-09T20:01:39.856Z,87.70
2019-02-09T20:04:08.066Z,87.77
2019-02-09T20:06:35.228Z,87.76
2019-02-09T20:09:04.201Z,87.79
2019-02-09T20:11:34.809Z,87.82
2019-02-09T20:14:01.982Z,87.78
2019-02-09T20:16:30.415Z,87.72
2019-02-09T20:18:57.508Z,87.71
2019-02-09T20:21:30.571Z,87.65
2019-02-09T20:23:57.972Z,87.59
2019-02-09T20:26:25.186Z,87.52
2019-02-09T20:28:52.383Z,87.46
2019-02-09T20:31:22.424Z,87.45
2019-02-09T20:33:49.555Z,87.58
2019-02-09T20:36:16.744Z,87.52
2019-02-09T20:38:46.135Z,87.43
2019-02-09T20:41:14.853Z,87.49
2019-02-09T20:43:42.076Z,87.44
2019-02-09T20:46:09.235Z,87.38
2019-02-09T20:48:36.355Z,87.37
2019-02-09T20:51:03.890Z,87.41
2019-02-09T20:53:31.228Z,87.54
2019-02-09T20:55:58.398Z,87.76
2019-02-09T20:58:25.757Z,87.76
2019-02-09T21:00:53.052Z,87.64
2019-02-09T21:03:20.231Z,87.65
2019-02-09T21:05:47.475Z,87.86
2019-02-09T21:08:14.779Z,87.93
2019-02-09T21:10:45.209Z,87.87
2019-02-09T21:13:12.472Z,87.71
2019-02-09T21:15:39.667Z,87.70
2019-02-09T21:18:07.386Z,87.78
2019-02-09T21:20:34.598Z,87.73
2019-02-09T21:23:02.012Z,87.69
2019-02-09T21:25:31.312Z,87.61
2019-02-09T21:28:00.235Z,87.74
2019-02-09T21:30:27.816Z,87.80
2019-02-09T21:32:55.543Z,87.94
2019-02-09T21:35:30.677Z,88.01
2019-02-09T21:38:04.284Z,87.99
2019-02-09T21:40:31.456Z,87.88
2019-02-09T21:42:58.798Z,87.71
2019-02-09T21:45:28.465Z,87.56
2019-02-09T21:47:55.725Z,87.57
2019-02-09T21:50:25.471Z,87.52
2019-02-09T21:52:54.275Z,87.61
2019-02-09T21:55:29.461Z,87.58
2019-02-09T21:57:57.666Z,87.40
2019-02-09T22:00:32.791Z,87.27
2019-02-09T22:02:59.950Z,87.20
2019-02-09T22:05:27.094Z,87.08
2019-02-09T22:07:54.356Z,87.12
2019-02-09T22:10:29.060Z,87.10
2019-02-09T22:12:52.550Z,87.05
2019-02-09T22:15:20.841Z,87.01
2019-02-09T22:17:49.632Z,86.87
2019-02-09T22:20:19.666Z,86.72
2019-02-09T22:22:47.494Z,86.63
2019-02-09T22:25:16.237Z,86.61
2019-02-09T22:27:44.094Z,86.51
2019-02-09T22:30:13.319Z,86.44
2019-02-09T22:32:40.493Z,86.56
2019-02-09T22:35:07.770Z,86.54
2019-02-09T22:37:36.259Z,86.41
2019-02-09T22:40:06.549Z,86.48
2019-02-09T22:42:33.674Z,86.41
2019-02-09T22:45:00.839Z,86.39
2019-02-09T22:47:28.015Z,86.32
2019-02-09T22:49:56.237Z,86.26
2019-02-09T22:52:23.553Z,86.25
2019-02-09T22:54:50.697Z,86.19
2019-02-09T22:57:17.793Z,86.25
2019-02-09T22:59:44.923Z,86.22
2019-02-09T23:02:12.515Z,86.23
2019-02-09T23:05:06.780Z,86.21
2019-02-09T23:07:34.271Z,86.25
2019-02-09T23:10:04.708Z,86.31
2019-02-09T23:12:31.905Z,86.33
2019-02-09T23:14:59.132Z,86.34
2019-02-09T23:17:26.262Z,86.35
2019-02-09T23:19:53.599Z,86.50
2019-02-09T23:22:20.745Z,86.68
2019-02-09T23:24:47.799Z,86.63
2019-02-09T23:27:14.916Z,86.65
2019-02-09T23:29:42.037Z,86.75
2019-02-09T23:32:09.143Z,86.87
2019-02-09T23:34:36.253Z,86.97
2019-02-09T23:37:03.341Z,87.11
2019-02-09T23:39:30.494Z,87.10
2019-02-09T23:41:57.616Z,87.05
2019-02-09T23:44:24.711Z,87.02
2019-02-09T23:46:51.918Z,87.26
2019-02-09T23:49:19.009Z,87.25
2019-02-09T23:51:46.148Z,87.61
2019-02-09T23:54:13.436Z,87.76
2019-02-09T23:56:40.554Z,87.77
2019-02-09T23:59:07.669Z,87.69
